Time,TemperatureF,DewpointF,PressureIn,WindDirection,WindDirectionDegrees,WindSpeedMPH,WindSpeedGustMPH,Humidity,HourlyPrecipIn,Conditions,Clouds,dailyrainin,SoftwareType,DateUTC
2013-04-23 00:06:00,14.6,10.0,30.07,West,259,0.0,-999.0,82,-99.99,,,0.00,weatherlink.com 1.10,2013-04-23 06:06:00,
2013-04-23 00:21:00,14.0,10.0,30.06,WSW,256,0.0,-999.0,82,-99.99,,,0.00,weatherlink.com 1.10,2013-04-23 06:21:00,
2013-04-23 00:36:00,13.2,9.0,30.07,West,260,0.0,-999.0,82,-99.99,,,0.00,weatherlink.com 1.10,2013-04-23 06:36:00,
2013-04-23 00:50:00,12.3,7.0,30.07,NE,46,0.0,-999.0,80,-99.99,,,0.00,weatherlink.com 1.10,2013-04-23 06:50:00,
2013-04-23 01:06:00,11.5,7.0,30.06,NE,42,0.0,-999.0,81,-99.99,,,0.00,weatherlink.com 1.10,2013-04-23 07:06:00,
2013-04-23 01:21:00,11.0,6.0,30.09,NE,44,0.0,-999.0,81,-99.99,,,0.00,weatherlink.com 1.10,2013-04-23 07:21:00,
2013-04-23 01:36:00,10.7,6.0,30.07,NE,44,0.0,-999.0,82,-99.99,,,0.00,weatherlink.com 1.10,2013-04-23 07:36:00,
2013-04-23 01:51:00,10.5,6.0,30.07,NE,44,0.0,-999.0,81,-99.99,,,0.00,weatherlink.com 1.10,2013-04-23 07:51:00,
2013-04-23 02:06:00,10.4,6.0,30.07,NE,44,0.0,-999.0,82,-99.99,,,0.00,weatherlink.com 1.10,2013-04-23 08:06:00,
2013-04-23 02:21:00,10.2,6.0,30.04,NE,44,0.0,-999.0,82,-99.99,,,0.00,weatherlink.com 1.10,2013-04-23 08:21:00,
2013-04-23 02:36:00,10.0,6.0,30.06,NE,44,0.0,-999.0,82,-99.99,,,0.00,weatherlink.com 1.10,2013-04-23 08:36:00,
2013-04-23 02:51:00,9.9,6.0,30.05,NE,44,0.0,-999.0,82,-99.99,,,0.00,weatherlink.com 1.10,2013-04-23 08:51:00,
2013-04-23 03:06:00,9.9,6.0,30.05,NE,44,0.0,-999.0,82,-99.99,,,0.00,weatherlink.com 1.10,2013-04-23 09:06:00,
2013-04-23 03:21:00,9.9,6.0,30.05,NE,44,0.0,-999.0,82,-99.99,,,0.00,weatherlink.com 1.10,2013-04-23 09:21:00,
2013-04-23 03:36:00,9.9,6.0,30.06,NE,44,0.0,-999.0,83,-99.99,,,0.00,weatherlink.com 1.10,2013-04-23 09:36:00,
2013-04-23 03:51:00,9.9,6.0,30.07,NE,44,0.0,-999.0,83,-99.99,,,0.00,weatherlink.com 1.10,2013-04-23 09:51:00,
2013-04-23 04:06:00,9.8,5.0,30.06,NE,44,0.0,-999.0,82,-99.99,,,0.00,weatherlink.com 1.10,2013-04-23 10:06:00,
2013-04-23 04:21:00,9.6,5.0,30.06,NE,44,0.0,-999.0,82,-99.99,,,0.00,weatherlink.com 1.10,2013-04-23 10:21:00,
2013-04-23 04:36:00,9.2,5.0,30.07,NE,44,0.0,-999.0,81,-99.99,,,0.00,weatherlink.com 1.10,2013-04-23 10:36:00,
2013-04-23 04:51:00,9.1,5.0,30.06,NE,44,0.0,-999.0,82,-99.99,,,0.00,weatherlink.com 1.10,2013-04-23 10:51:00,
2013-04-23 05:06:00,9.0,5.0,30.07,NE,44,0.0,-999.0,82,-99.99,,,0.00,weatherlink.com 1.10,2013-04-23 11:06:00,
2013-04-23 05:21:00,8.9,5.0,30.06,NE,44,0.0,-999.0,82,-99.99,,,0.00,weatherlink.com 1.10,2013-04-23 11:21:00,
2013-04-23 05:36:00,8.9,5.0,30.06,NE,44,0.0,-999.0,82,-99.99,,,0.00,weatherlink.com 1.10,2013-04-23 11:36:00,
2013-04-23 05:51:00,8.9,5.0,30.06,NE,44,0.0,-999.0,82,-99.99,,,0.00,weatherlink.com 1.10,2013-04-23 11:51:00,
2013-04-23 06:06:00,8.9,5.0,30.07,NE,44,0.0,-999.0,82,-99.99,,,0.00,weatherlink.com 1.10,2013-04-23 12:06:00,
2013-04-23 06:21:00,8.9,5.0,30.07,NE,44,0.0,-999.0,82,-99.99,,,0.00,weatherlink.com 1.10,2013-04-23 12:21:00,
2013-04-23 06:36:00,8.8,4.0,30.07,NE,44,0.0,-999.0,82,-99.99,,,0.00,weatherlink.com 1.10,2013-04-23 12:36:00,
2013-04-23 06:51:00,8.8,4.0,30.08,NE,44,0.0,-999.0,82,-99.99,,,0.00,weatherlink.com 1.10,2013-04-23 12:51:00,
2013-04-23 07:06:00,8.9,5.0,30.09,NE,44,0.0,-999.0,82,-99.99,,,0.00,weatherlink.com 1.10,2013-04-23 13:06:00,
2013-04-23 07:21:00,9.1,5.0,30.09,NE,44,0.0,-999.0,83,-99.99,,,0.00,weatherlink.com 1.10,2013-04-23 13:21:00,
2013-04-23 07:36:00,9.6,5.0,30.11,NE,44,0.0,-999.0,82,-99.99,,,0.00,weatherlink.com 1.10,2013-04-23 13:36:00,
2013-04-23 07:51:00,9.8,5.0,30.11,NE,44,0.0,-999.0,80,-99.99,,,0.00,weatherlink.com 1.10,2013-04-23 13:51:00,
2013-04-23 08:06:00,10.3,5.0,30.12,NE,44,0.0,-999.0,80,-99.99,,,0.00,weatherlink.com 1.10,2013-04-23 14:06:00,
2013-04-23 08:21:00,11.2,6.0,30.12,NE,44,0.0,-999.0,80,-99.99,,,0.00,weatherlink.com 1.10,2013-04-23 14:21:00,
2013-04-23 08:36:00,12.3,7.0,30.13,NE,44,0.0,-999.0,78,-99.99,,,0.00,weatherlink.com 1.10,2013-04-23 14:36:00,
2013-04-23 08:51:00,12.7,7.0,30.13,NE,44,0.0,-999.0,78,-99.99,,,0.00,weatherlink.com 1.10,2013-04-23 14:51:00,
2013-04-23 09:06:00,13.7,8.0,30.13,WNW,301,0.0,-999.0,79,-99.99,,,0.00,weatherlink.com 1.10,2013-04-23 15:06:00,
2013-04-23 09:21:00,14.5,9.0,30.14,WSW,238,0.0,-999.0,78,-99.99,,,0.00,weatherlink.com 1.10,2013-04-23 15:21:00,
2013-04-23 09:36:00,14.8,9.0,30.15,WSW,247,0.0,-999.0,76,-99.99,,,0.00,weatherlink.com 1.10,2013-04-23 15:36:00,
2013-04-23 09:51:00,14.7,8.0,30.15,WSW,250,0.0,-999.0,76,-99.99,,,0.00,weatherlink.com 1.10,2013-04-23 15:51:00,
2013-04-23 10:06:00,14.3,8.0,30.15,WSW,250,1.0,-999.0,77,-99.99,,,0.00,weatherlink.com 1.10,2013-04-23 16:06:00,
2013-04-23 10:21:00,15.1,10.0,30.16,SW,235,0.0,-999.0,80,-99.99,,,0.00,weatherlink.com 1.10,2013-04-23 16:21:00,
2013-04-23 10:36:00,16.4,11.0,30.16,WSW,237,2.0,-999.0,78,-99.99,,,0.00,weatherlink.com 1.10,2013-04-23 16:36:00,
2013-04-23 10:51:00,16.4,10.0,30.18,West,266,2.0,-999.0,76,-99.99,,,0.00,weatherlink.com 1.10,2013-04-23 16:51:00,
2013-04-23 11:06:00,16.8,10.0,30.18,WSW,244,0.0,-999.0,74,-99.99,,,0.00,weatherlink.com 1.10,2013-04-23 17:06:00,
2013-04-23 11:21:00,17.0,10.0,30.19,SSW,202,1.0,-999.0,75,-99.99,,,0.00,weatherlink.com 1.10,2013-04-23 17:21:00,
2013-04-23 11:36:00,17.3,11.0,30.18,WNW,295,0.0,-999.0,75,-99.99,,,0.00,weatherlink.com 1.10,2013-04-23 17:36:00,
2013-04-23 11:51:00,17.1,10.0,30.18,WSW,250,1.0,-999.0,74,-99.99,,,0.00,weatherlink.com 1.10,2013-04-23 17:51:00,
2013-04-23 12:06:00,17.7,11.0,30.19,NW,324,0.0,-999.0,76,-99.99,,,0.00,weatherlink.com 1.10,2013-04-23 18:06:00,
2013-04-23 12:21:00,18.5,12.0,30.19,WSW,252,2.0,-999.0,75,-99.99,,,0.00,weatherlink.com 1.10,2013-04-23 18:21:00,
2013-04-23 12:36:00,18.4,12.0,30.20,West,260,0.0,-999.0,75,-99.99,,,0.00,weatherlink.com 1.10,2013-04-23 18:36:00,
2013-04-23 12:51:00,19.2,13.0,30.20,North,349,0.0,-999.0,77,-99.99,,,0.00,weatherlink.com 1.10,2013-04-23 18:51:00,
2013-04-23 13:06:00,20.6,13.0,30.20,East,82,0.0,-999.0,73,-99.99,,,0.00,weatherlink.com 1.10,2013-04-23 19:06:00,
2013-04-23 13:21:00,19.3,12.0,30.19,West,281,1.0,-999.0,74,-99.99,,,0.00,weatherlink.com 1.10,2013-04-23 19:21:00,
2013-04-23 13:36:00,21.5,15.0,30.18,WSW,253,2.0,-999.0,75,-99.99,,,0.00,weatherlink.com 1.10,2013-04-23 19:36:00,
2013-04-23 13:51:00,22.1,13.0,30.19,WNW,299,1.0,-999.0,69,-99.99,,,0.00,weatherlink.com 1.10,2013-04-23 19:51:00,
2013-04-23 14:06:00,23.1,13.0,30.19,SSW,195,3.0,-999.0,65,-99.99,,,0.00,weatherlink.com 1.10,2013-04-23 20:06:00,
2013-04-23 14:21:00,23.6,15.0,30.20,NE,35,4.0,-999.0,70,-99.99,,,0.00,weatherlink.com 1.10,2013-04-23 20:21:00,
2013-04-23 14:36:00,25.0,15.0,30.19,ENE,65,4.0,-999.0,67,-99.99,,,0.00,weatherlink.com 1.10,2013-04-23 20:36:00,
2013-04-23 14:51:00,23.8,15.0,30.21,ENE,63,4.0,-999.0,69,-99.99,,,0.00,weatherlink.com 1.10,2013-04-23 20:51:00,
2013-04-23 15:06:00,23.4,14.0,30.21,SSW,213,1.0,-999.0,68,-99.99,,,0.00,weatherlink.com 1.10,2013-04-23 21:06:00,
2013-04-23 15:21:00,23.0,13.0,30.21,SSW,207,0.0,-999.0,66,-99.99,,,0.00,weatherlink.com 1.10,2013-04-23 21:21:00,
2013-04-23 15:36:00,22.4,15.0,30.22,East,90,5.0,-999.0,72,-99.99,,,0.00,weatherlink.com 1.10,2013-04-23 21:36:00,
2013-04-23 15:51:00,22.9,12.0,30.20,SSW,194,3.0,-999.0,62,-99.99,,,0.00,weatherlink.com 1.10,2013-04-23 21:51:00,
2013-04-23 16:06:00,21.8,12.0,30.22,South,169,3.0,-999.0,66,-99.99,,,0.00,weatherlink.com 1.10,2013-04-23 22:06:00,
2013-04-23 16:21:00,21.2,12.0,30.23,South,182,2.0,-999.0,68,-99.99,,,0.00,weatherlink.com 1.10,2013-04-23 22:21:00,
2013-04-23 16:36:00,19.7,13.0,30.26,NE,52,0.0,-999.0,76,-99.99,,,0.00,weatherlink.com 1.10,2013-04-23 22:36:00,
2013-04-23 16:51:00,19.0,13.0,30.26,SW,221,1.0,-999.0,77,-99.99,,,0.00,weatherlink.com 1.10,2013-04-23 22:51:00,
2013-04-23 17:06:00,19.1,12.0,30.28,SE,137,0.0,-999.0,75,-99.99,,,0.00,weatherlink.com 1.10,2013-04-23 23:06:00,
2013-04-23 17:21:00,18.5,12.0,30.28,NE,49,0.0,-999.0,76,-99.99,,,0.00,weatherlink.com 1.10,2013-04-23 23:21:00,
2013-04-23 17:36:00,18.4,11.0,30.28,ENE,62,1.0,-999.0,74,-99.99,,,0.00,weatherlink.com 1.10,2013-04-23 23:36:00,
2013-04-23 17:51:00,18.6,11.0,30.30,East,85,2.0,-999.0,72,-99.99,,,0.00,weatherlink.com 1.10,2013-04-23 23:51:00,
2013-04-23 18:06:00,18.8,12.0,30.31,SSW,200,0.0,-999.0,76,-99.99,,,0.00,weatherlink.com 1.10,2013-04-24 00:06:00,
2013-04-23 18:21:00,18.9,11.0,30.32,North,5,1.0,-999.0,70,-99.99,,,0.00,weatherlink.com 1.10,2013-04-24 00:21:00,
2013-04-23 18:36:00,18.3,10.0,30.32,South,190,0.0,-999.0,70,-99.99,,,0.00,weatherlink.com 1.10,2013-04-24 00:36:00,
2013-04-23 18:51:00,17.7,11.0,30.34,ENE,66,0.0,-999.0,74,-99.99,,,0.00,weatherlink.com 1.10,2013-04-24 00:51:00,
2013-04-23 19:06:00,17.1,10.0,30.33,South,181,0.0,-999.0,72,-99.99,,,0.00,weatherlink.com 1.10,2013-04-24 01:06:00,
2013-04-23 19:21:00,16.6,9.0,30.36,ENE,70,1.0,-999.0,72,-99.99,,,0.00,weatherlink.com 1.10,2013-04-24 01:21:00,
2013-04-23 19:36:00,16.3,9.0,30.37,ENE,58,0.0,-999.0,72,-99.99,,,0.00,weatherlink.com 1.10,2013-04-24 01:36:00,
2013-04-23 19:51:00,16.0,9.0,30.39,ENE,58,0.0,-999.0,74,-99.99,,,0.00,weatherlink.com 1.10,2013-04-24 01:51:00,
2013-04-23 20:06:00,15.8,10.0,30.40,ENE,59,0.0,-999.0,76,-99.99,,,0.00,weatherlink.com 1.10,2013-04-24 02:06:00,
2013-04-23 20:21:00,15.3,9.0,30.41,ENE,59,0.0,-999.0,77,-99.99,,,0.00,weatherlink.com 1.10,2013-04-24 02:21:00,
2013-04-23 20:36:00,14.7,8.0,30.43,ENE,59,1.0,-999.0,75,-99.99,,,0.00,weatherlink.com 1.10,2013-04-24 02:36:00,
2013-04-23 20:51:00,14.2,8.0,30.45,NW,322,0.0,-999.0,75,-99.99,,,0.00,weatherlink.com 1.10,2013-04-24 02:51:00,
2013-04-23 21:06:00,13.6,6.0,30.45,NW,325,0.0,-999.0,73,-99.99,,,0.00,weatherlink.com 1.10,2013-04-24 03:06:00,
2013-04-23 21:36:00,12.2,5.0,30.47,NW,324,0.0,-999.0,72,-99.99,,,0.00,weatherlink.com 1.10,2013-04-24 03:36:00,
2013-04-23 21:51:00,11.2,4.0,30.48,NW,324,0.0,-999.0,74,-99.99,,,0.00,weatherlink.com 1.10,2013-04-24 03:51:00,
2013-04-23 22:06:00,10.5,4.0,30.48,NW,323,0.0,-999.0,74,-99.99,,,0.00,weatherlink.com 1.10,2013-04-24 04:06:00,
2013-04-23 22:21:00,10.3,3.0,30.49,NNW,328,1.0,-999.0,73,-99.99,,,0.00,weatherlink.com 1.10,2013-04-24 04:21:00,
2013-04-23 22:36:00,11.1,3.0,30.49,West,275,1.0,-999.0,71,-99.99,,,0.00,weatherlink.com 1.10,2013-04-24 04:36:00,
2013-04-23 22:51:00,10.7,3.0,30.49,WSW,247,0.0,-999.0,71,-99.99,,,0.00,weatherlink.com 1.10,2013-04-24 04:51:00,
2013-04-23 23:06:00,10.6,3.0,30.48,SW,223,1.0,-999.0,71,-99.99,,,0.00,weatherlink.com 1.10,2013-04-24 05:06:00,
2013-04-23 23:21:00,11.2,3.0,30.48,SSW,201,0.0,-999.0,70,-99.99,,,0.00,weatherlink.com 1.10,2013-04-24 05:21:00,
2013-04-23 23:36:00,10.9,3.0,30.47,North,5,1.0,-999.0,69,-99.99,,,0.00,weatherlink.com 1.10,2013-04-24 05:36:00,
2013-04-23 23:51:00,11.0,2.0,30.47,SSW,211,0.0,-999.0,68,-99.99,,,0.00,weatherlink.com 1.10,2013-04-24 05:51:00,